Latest Coastal Weather Observations for Cato Island

IDQ60701

Issued at 2:55 am EST Monday 24 November 2014 (issued every 10 minutes, with the page automatically refreshed every 10 minutes)

About coastal observations | Map of coastal stations | Coastal observations for QLD | Marine services | Other Formats
Station Details ID: 200601 Name: CATO ISLAND Lat: -23.25 Lon: 155.54 Height: 6.3 m
Data from the previous 72 hours. | See also: Recent months for locations in Queensland
Date/Time
EST
Temp

°C
Wind Pressure Rain
since 9am
mm
Weather Cloud Vis
km
Sea
Height
m
Swell
Dir
 
Speed
knots
Gust
knots
hPa Trend Height
m
Period
s
Dir
24/02:30am 24.6 ENE 17 20 1016.2 - - - - - - - - -
24/02:00am 24.4 ENE 18 21 1016.2 - - - - - - - - -
24/01:30am 24.5 ENE 17 20 1016.3 - - - - - - - - -
24/01:00am 24.7 E 21 24 1016.3 - - - - - - - - -
24/12:30am 24.7 ENE 20 24 1016.6 - - - - - - - - -
24/12:00am 24.8 ENE 20 23 1016.7 - - - - - - - - -
 
Date/Time
EST
Temp

°C
Wind Pressure Rain
since 9am
mm
Weather Cloud Vis
km
Sea
Height
m
Swell
Dir
 
Speed
knots
Gust
knots
hPa Trend Height
m
Period
s
Dir
23/11:30pm 24.9 ENE 21 24 1016.9 - - - - - - - - -
23/11:00pm 25.0 E 19 22 1017.2 - - - - - - - - -
23/10:30pm 25.0 ENE 20 23 1017.3 - - - - - - - - -
23/10:00pm 25.2 ENE 18 21 1017.5 - - - - - - - - -
23/09:30pm 25.3 ENE 17 21 1017.2 - - - - - - - - -
23/09:00pm 25.2 ENE 17 20 1017.0 - - - - - - - - -
23/08:30pm 25.3 ENE 12 15 1016.9 - - - - - - - - -
23/08:00pm 25.2 ENE 12 14 1016.5 - - - - - - - - -
23/07:30pm 25.2 ENE 13 15 1016.5 - - - - - - - - -
23/07:00pm 25.4 E 13 - 1016.4 - - - - - - - - -
23/06:30pm 25.4 ENE 12 15 1016.1 - - - - - - - - -
23/06:00pm 25.5 ENE 12 14 1015.9 - - - - - - - - -
23/05:30pm 25.6 E 13 15 1015.8 - - - - - - - - -
23/05:00pm 25.6 E 13 15 1015.6 - - - - - - - - -
23/04:30pm 26.0 E 13 15 1015.3 - - - - - - - - -
23/04:00pm 26.3 E 13 15 1015.3 - - - - - - - - -
23/03:30pm 26.3 E 13 16 1015.4 - - - - - - - - -
23/03:00pm 26.6 E 13 15 1015.5 - - - - - - - - -
23/02:30pm 26.3 E 13 15 1016.0 - - - - - - - - -
23/02:00pm 27.0 E 13 14 1016.1 - - - - - - - - -
23/01:30pm 27.4 E 13 15 1016.4 - - - - - - - - -
23/01:00pm 26.7 E 13 15 1016.6 - - - - - - - - -
23/12:30pm 26.6 E 14 17 1016.8 - - - - - - - - -
23/12:00pm 27.0 ENE 15 17 1017.0 - - - - - - - - -
23/11:00am 26.6 E 14 17 1017.6 - - - - - - - - -
23/10:30am 26.6 E 14 16 1017.7 - - - - - - - - -
23/10:00am 26.7 E 14 16 1017.8 - - - - - - - - -
23/09:30am 26.8 E 15 17 1017.9 - - - - - - - - -
23/09:00am 26.7 E 15 17 1017.8 - - - - - - - - -
23/08:30am 26.8 ENE 14 16 1017.7 - - - - - - - - -
23/08:00am 26.9 ENE 14 16 1017.5 - - - - - - - - -
23/07:30am 26.6 ENE 14 16 1017.4 - - - - - - - - -
23/07:00am 26.4 ENE 13 15 1017.1 - - - - - - - - -
23/06:30am 26.2 ENE 14 16 1016.8 - - - - - - - - -
23/06:00am 25.9 NE 14 16 1016.6 - - - - - - - - -
23/05:30am 25.4 NE 13 17 1016.1 - - - - - - - - -
23/05:00am 24.9 NE 14 16 1015.8 - - - - - - - - -
23/04:30am 24.9 ENE 14 17 1015.5 - - - - - - - - -
23/04:00am 24.6 N 13 19 1015.3 - - - - - - - - -
23/03:30am 24.6 NE 12 15 1015.0 - - - - - - - - -
23/03:00am 24.7 E 10 13 1015.0 - - - - - - - - -
23/02:30am 24.6 E 11 13 1015.0 - - - - - - - - -
23/02:00am 24.7 E 11 13 1015.1 - - - - - - - - -
23/01:30am 24.7 E 11 13 1015.2 - - - - - - - - -
23/01:00am 24.6 E 12 - 1015.4 - - - - - - - - -
23/12:00am 25.0 ENE 14 16 1016.1 - - - - - - - - -
 
Date/Time
EST
Temp

°C
Wind Pressure Rain
since 9am
mm
Weather Cloud Vis
km
Sea
Height
m
Swell
Dir
 
Speed
knots
Gust
knots
hPa Trend Height
m
Period
s
Dir
22/11:30pm 24.9 E 15 17 1016.3 - - - - - - - - -
22/11:00pm 25.0 E 16 19 1016.5 - - - - - - - - -
22/10:00pm 25.1 E 17 19 1016.7 - - - - - - - - -
22/09:00pm 25.1 ENE 14 16 1016.6 - - - - - - - - -
22/08:00pm 25.1 E 14 16 1016.1 - - - - - - - - -
22/07:00pm 25.1 E 14 16 1015.8 - - - - - - - - -
22/06:30pm 25.3 E 14 17 1015.4 - - - - - - - - -
22/06:00pm 25.1 E 13 16 1015.2 - - - - - - - - -
22/05:30pm 25.3 E 13 16 1014.8 - - - - - - - - -
22/05:00pm 25.5 E 13 16 1014.6 - - - - - - - - -
22/04:30pm 25.6 E 12 16 1014.3 - - - - - - - - -
22/04:00pm 25.6 E 12 - 1014.3 - - - - - - - - -
22/03:00pm 26.1 E 11 15 1014.6 - - - - - - - - -
22/02:30pm 25.9 ESE 10 12 1014.9 - - - - - - - - -
22/02:00pm 26.0 E 9 12 1015.2 - - - - - - - - -
22/01:30pm 26.4 E 8 11 1015.5 - - - - - - - - -
22/01:00pm 26.9 E 7 9 1015.7 - - - - - - - - -
22/12:30pm 26.8 ENE 7 9 1015.8 - - - - - - - - -
22/12:00pm 26.8 ENE 7 8 1016.1 - - - - - - - - -
22/11:30am 26.9 E 9 11 1016.3 - - - - - - - - -
22/11:00am 27.2 ENE 9 11 1016.6 - - - - - - - - -
22/10:30am 26.9 ENE 10 12 1016.9 - - - - - - - - -
22/10:00am 26.7 ENE 10 12 1017.0 - - - - - - - - -
22/09:30am 26.7 ENE 10 13 1017.1 - - - - - - - - -
22/09:00am 26.5 ENE 11 14 1017.1 - - - - - - - - -
22/08:30am 26.5 ENE 10 11 1017.1 - - - - - - - - -
22/08:00am 26.5 ENE 10 13 1016.9 - - - - - - - - -
22/07:30am 26.1 ENE 10 13 1016.7 - - - - - - - - -
22/07:00am 25.9 ENE 10 12 1016.7 - - - - - - - - -
22/06:30am 26.0 NE 12 14 1016.3 - - - - - - - - -
22/06:00am 25.1 NE 12 14 1016.0 - - - - - - - - -
22/05:30am 24.8 NE 13 16 1015.4 - - - - - - - - -
22/05:00am 24.4 NE 14 17 1015.0 - - - - - - - - -
22/04:30am 24.1 NE 13 15 1014.7 - - - - - - - - -
22/04:00am 24.2 NE 14 17 1014.5 - - - - - - - - -
22/03:30am 24.6 ENE 15 17 1014.3 - - - - - - - - -
22/03:00am 24.5 ENE 14 18 1014.2 - - - - - - - - -
22/02:30am 24.5 E 13 17 1014.2 - - - - - - - - -
22/02:00am 24.4 E 12 - 1014.4 - - - - - - - - -
22/01:00am 24.4 NE 12 14 1014.7 - - - - - - - - -
22/12:30am 24.6 ENE 12 14 1015.2 - - - - - - - - -
22/12:00am 24.7 NE 13 16 1015.5 - - - - - - - - -
 
Date/Time
EST
Temp

°C
Wind Pressure Rain
since 9am
mm
Weather Cloud Vis
km
Sea
Height
m
Swell
Dir
 
Speed
knots
Gust
knots
hPa Trend Height
m
Period
s
Dir
21/11:30pm 24.8 NE 14 17 1015.6 - - - - - - - - -
21/11:00pm 24.7 NE 11 14 1015.8 - - - - - - - - -
21/10:30pm 24.7 NE 13 16 1016.0 - - - - - - - - -
21/10:00pm 24.8 NE 14 16 1016.2 - - - - - - - - -
21/09:30pm 24.9 NE 14 16 1016.2 - - - - - - - - -
21/09:00pm 24.8 NE 13 15 1016.1 - - - - - - - - -
21/08:30pm 24.8 ENE 13 15 1016.1 - - - - - - - - -
21/08:00pm 24.8 ENE 13 15 1015.9 - - - - - - - - -
21/07:30pm 24.9 ENE 13 15 1015.9 - - - - - - - - -
21/07:00pm 25.1 ENE 12 15 1015.5 - - - - - - - - -
21/06:30pm 25.1 ENE 12 14 1015.3 - - - - - - - - -
21/06:00pm 25.2 ENE 11 13 1015.2 - - - - - - - - -
21/05:30pm 25.4 ENE 11 13 1014.9 - - - - - - - - -
21/05:00pm 25.8 ENE 9 11 1014.7 - - - - - - - - -
21/04:30pm 25.9 ENE 9 11 1014.5 - - - - - - - - -
21/04:00pm 26.1 ENE 9 11 1014.2 - - - - - - - - -
21/03:30pm 26.6 ENE 9 11 1014.0 - - - - - - - - -
21/03:00pm 26.6 ENE 10 11 1014.1 - - - - - - - - -
21/02:30pm 26.6 ENE 10 13 1014.4 - - - - - - - - -
21/02:00pm 27.0 ENE 9 11 1014.5 - - - - - - - - -
21/01:30pm 27.5 ENE 8 10 1015.0 - - - - - - - - -
21/01:00pm 27.0 ENE 9 11 1015.5 - - - - - - - - -
21/12:00pm 27.9 NE 10 11 1016.0 - - - - - - - - -
21/11:00am 27.3 ENE 11 13 1016.6 - - - - - - - - -
21/10:30am 26.9 ENE 10 12 1016.8 - - - - - - - - -
21/10:00am 26.9 ENE 11 14 1016.9 - - - - - - - - -
21/09:30am 27.4 NE 11 13 1017.1 - - - - - - - - -
21/09:00am 26.9 NE 11 14 1017.2 - - - - - - - - -
21/08:30am 26.5 ENE 13 15 1017.1 - - - - - - - - -
21/08:00am 26.6 NE 14 16 1017.1 - - - - - - - - -
21/07:30am 26.1 ENE 14 17 1016.9 - - - - - - - - -
21/07:00am 26.1 NE 14 17 1016.8 - - - - - - - - -
21/06:30am 25.8 NE 15 17 1016.6 - - - - - - - - -
21/06:00am 25.1 ENE 15 17 1016.3 - - - - - - - - -
21/05:30am 24.8 ENE 15 17 1015.9 - - - - - - - - -
21/05:00am 24.4 NE 14 16 1015.8 - - - - - - - - -
21/04:30am 24.4 NE 14 17 1015.7 - - - - - - - - -
21/04:00am 24.3 NE 15 17 1015.5 - - - - - - - - -
21/03:30am 24.4 ENE 15 17 1015.5 - - - - - - - - -
21/03:00am 24.5 ENE 15 17 1015.4 - - - - - - - - -

Other Formats:

Comma delimited format used in spreadsheet applications
http://www.bom.gov.au/fwo/IDQ60701/IDQ60701.94394.axf

JavaScript Object Notation format (JSON) in row-major order
http://www.bom.gov.au/fwo/IDQ60701/IDQ60701.94394.json